Terminal Aerodrome Forecast
Issued by NWS Cleveland, OH

Home | Current Version | Previous Version | Text Only | Print | Product List | Glossary Off
Versions: 1 2 3 4 5 6 7 8 9 10 11 12 13 14 15 16 17 18 19 20 21 22 23 24 25 26 27 28 29

000
FTUS41 KCLE 230817 AAB
TAFCLE
TAF AMD
KCLE 230817Z 2308/2412 13010KT P6SM SKC
     FM231500 14011G20KT P6SM BKN250
     FM232000 07011KT P6SM SCT060 BKN100
     FM240000 15010KT P6SM SCT060 BKN100
     FM240900 12010KT P6SM VCSH OVC035=

USA.gov is the U.S. government's official web portal to all federal, state and local government web resources and services.